Alexandria, Kentucky
Current Conditions -  °F | °C
As of 4:53 PM on Saturday 25 Oct 2014 (Local Time) from KLUK Reporting Station
Clear Clear  
Wind Chill: 73°   Ceiling: Unl
Heat Index: 73°   Visibility: 10mi
Dew Point: 56°   Wind: 13mph
Humidity: 55%   Direction: 250°WSW
Pressure: 29.92"   Gusts: NA
Location:  38.96°N, 84.4°W
Report Text: KLUK 252053Z 25011KT 10SM CLR 23/13 A2992 RMK AO2 SLP129 T02280133 55010
Loading
Personal Weather Stations






























Interactive Weather Map New forecast layout! Learn more

10-Day Weather Forecast

Advertisements
Track Severe Weather on mobile